Time;durP1;ratioP1;P1;durP2;ratioP2;P2;SDS_P1;SDS_P2;PMS_P1;PMS_P2;Temp;Humidity;BMP_temperature;BMP_pressure;BME280_temperature;BME280_humidity;BME280_pressure;Samples;Min_cycle;Max_cycle;Signal;HPM_P1;HPM_P2
2021/04/27 00:01:31;;;;;;;8.10;4.75;;;10.50;94.10;;;9.95;59.78;100127.88;5046953;28;20045;-42
2021/04/27 00:03:57;;;;;;;7.60;4.47;;;10.50;93.90;;;9.97;59.62;100122.53;5046629;28;20029;-42
2021/04/27 00:06:23;;;;;;;8.40;5.05;;;10.50;93.90;;;9.93;60.16;100122.00;5047650;28;20036;-43
2021/04/27 00:08:49;;;;;;;6.22;4.53;;;10.50;94.00;;;9.93;59.85;100111.59;5047586;28;20029;-46
2021/04/27 00:11:15;;;;;;;6.57;4.85;;;10.50;94.00;;;9.91;60.13;100113.56;5048198;28;20039;-43
2021/04/27 00:13:42;;;;;;;7.80;5.03;;;10.50;94.10;;;9.93;60.14;100110.78;5046631;28;20043;-40
2021/04/27 00:16:09;;;;;;;7.57;4.00;;;10.50;94.10;;;9.96;59.98;100106.09;5047076;28;20393;-44
2021/04/27 00:18:35;;;;;;;8.38;4.50;;;10.50;94.10;;;9.93;60.32;100103.78;5047847;28;20229;-43
2021/04/27 00:21:01;;;;;;;7.80;4.45;;;10.50;94.50;;;9.92;60.75;100109.16;5047724;28;20082;-41
2021/04/27 00:23:28;;;;;;;7.57;4.53;;;10.50;94.90;;;9.92;61.03;100111.78;5046853;28;20122;-41
2021/04/27 00:25:54;;;;;;;11.48;4.47;;;10.50;95.50;;;9.90;61.12;100103.28;5046957;28;20072;-46
2021/04/27 00:28:20;;;;;;;7.03;4.82;;;10.40;95.50;;;9.94;60.89;100100.22;5047709;28;20044;-43
2021/04/27 00:30:45;;;;;;;7.63;4.00;;;10.50;95.30;;;9.97;61.29;100106.91;5045144;28;20037;-42
2021/04/27 00:33:12;;;;;;;9.48;4.45;;;10.50;95.70;;;9.93;61.86;100095.16;5029310;28;20469;-44
2021/04/27 00:35:38;;;;;;;10.90;5.45;;;10.50;96.30;;;9.86;62.38;100092.38;5046888;28;20045;-41
2021/04/27 00:38:04;;;;;;;6.82;3.75;;;10.40;97.00;;;9.80;62.79;100094.75;5047780;28;20060;-41
2021/04/27 00:40:32;;;;;;;7.28;4.55;;;10.40;97.50;;;9.72;63.28;100090.28;5046617;28;20064;-41
2021/04/27 00:42:59;;;;;;;7.57;3.90;;;10.30;98.10;;;9.64;63.90;100078.00;5047591;28;20176;-42
2021/04/27 00:45:27;;;;;;;5.80;4.25;;;10.30;98.70;;;9.59;64.31;100076.81;5045549;28;20123;-42
2021/04/27 00:47:56;;;;;;;14.98;6.28;;;10.20;99.40;;;9.56;63.92;100071.91;5049975;28;20075;-42
2021/04/27 00:50:32;;;;;;;7.95;5.47;;;10.10;99.60;;;9.55;64.75;100065.06;5067319;28;20573;-43
2021/04/27 00:52:59;;;;;;;8.30;4.75;;;10.10;99.90;;;9.52;63.91;100066.16;5066855;28;20036;-41
2021/04/27 00:55:27;;;;;;;8.55;4.65;;;10.10;99.90;;;9.42;64.26;100055.03;5065967;28;20032;-47
2021/04/27 00:57:54;;;;;;;8.73;4.90;;;10.00;99.90;;;9.38;64.33;100058.06;5067127;28;20097;-40
2021/04/27 01:00:27;;;;;;;6.10;4.80;;;10.00;99.90;;;9.35;63.84;100053.97;5066417;28;20055;-42
2021/04/27 01:02:54;;;;;;;9.85;6.25;;;9.90;99.90;;;9.31;63.66;100050.03;5066678;28;20040;-44
2021/04/27 01:05:25;;;;;;;6.90;5.03;;;9.90;99.90;;;9.30;63.33;100041.41;5067334;28;20040;-41
2021/04/27 01:07:56;;;;;;;10.73;5.18;;;9.90;99.80;;;9.29;63.80;100039.78;5065505;28;20039;-41
2021/04/27 01:10:30;;;;;;;8.00;5.55;;;9.90;99.90;;;9.26;63.69;100039.25;5049445;28;20448;-44
2021/04/27 01:13:12;;;;;;;7.57;5.18;;;9.80;99.90;;;9.22;64.45;100046.53;5047204;28;20048;-41
2021/04/27 01:15:41;;;;;;;6.63;4.93;;;9.80;99.90;;;9.10;64.45;100041.66;5043882;28;20029;-41
2021/04/27 01:18:09;;;;;;;8.27;5.18;;;9.70;99.90;;;9.01;64.98;100045.13;5048033;28;20498;-43
2021/04/27 01:20:43;;;;;;;7.93;5.28;;;9.60;99.90;;;8.94;65.28;100037.13;5049180;28;20075;-42
2021/04/27 01:23:17;;;;;;;7.28;4.95;;;9.50;99.90;;;8.93;64.91;100041.50;5066621;28;20128;-44
2021/04/27 01:26:04;;;;;;;8.45;5.10;;;9.50;99.90;;;8.95;65.04;100039.59;5066399;28;20044;-40
2021/04/27 01:28:31;;;;;;;8.30;5.22;;;9.50;99.90;;;8.97;64.42;100042.03;5066569;28;20539;-41
2021/04/27 01:30:58;;;;;;;9.20;5.20;;;9.50;99.90;;;8.99;64.26;100038.31;5048192;28;20041;-41
2021/04/27 01:33:28;;;;;;;11.27;5.22;;;9.60;99.90;;;9.01;63.96;100034.75;5066042;28;20041;-43
2021/04/27 01:36:00;;;;;;;8.38;4.82;;;9.60;99.90;;;8.86;64.95;100031.81;5048954;28;20082;-41
2021/04/27 01:38:28;;;;;;;7.90;4.75;;;9.50;99.90;;;8.76;65.11;100031.88;5049190;28;20087;-40
2021/04/27 01:40:55;;;;;;;15.43;4.78;;;9.40;99.90;;;8.74;65.74;100026.00;5048961;28;20048;-41
2021/04/27 01:43:22;;;;;;;9.15;5.25;;;9.40;99.90;;;8.70;65.70;100026.41;5066339;28;20066;-42
2021/04/27 01:46:03;;;;;;;6.40;4.38;;;9.30;99.90;;;8.71;65.83;100018.50;5031893;28;20042;-42
2021/04/27 01:48:31;;;;;;;6.82;5.00;;;9.30;99.90;;;8.75;65.48;100014.63;5040320;28;20056;-40
2021/04/27 01:50:57;;;;;;;7.75;4.55;;;9.30;99.90;;;8.81;65.30;100014.06;5027237;28;20116;-43
2021/04/27 01:53:24;;;;;;;8.00;4.53;;;9.40;99.90;;;8.83;65.57;100017.34;5045737;28;20033;-41
2021/04/27 01:55:50;;;;;;;9.95;5.15;;;9.40;99.90;;;8.80;66.41;100016.81;5028506;28;20040;-45
2021/04/27 01:58:17;;;;;;;8.70;4.93;;;9.40;99.90;;;8.84;66.76;100007.78;5043321;28;20400;-43
2021/04/27 02:00:44;;;;;;;7.93;5.05;;;9.40;99.90;;;8.83;66.71;100017.34;5040328;28;20454;-44
2021/04/27 02:03:10;;;;;;;8.32;5.22;;;9.40;99.90;;;8.82;67.16;100020.91;5040512;28;20041;-41
2021/04/27 02:05:37;;;;;;;8.57;5.30;;;9.40;99.90;;;8.90;66.94;100018.41;5046787;28;20181;-41
2021/04/27 02:08:03;;;;;;;6.75;4.55;;;9.40;99.90;;;9.02;66.75;100015.59;5040096;28;20503;-40
2021/04/27 02:10:30;;;;;;;7.45;5.05;;;9.50;99.90;;;9.11;66.29;100019.91;5050404;28;20033;-44
2021/04/27 02:13:03;;;;;;;10.75;5.50;;;9.60;99.90;;;9.18;65.49;100016.59;5030407;28;20452;-45
2021/04/27 02:15:29;;;;;;;9.70;4.78;;;9.70;99.90;;;9.24;65.14;100015.19;5026730;28;20112;-43
2021/04/27 02:18:44;;;;;;;8.63;4.95;;;9.70;99.90;;;9.35;64.15;100017.59;5049054;28;20033;-43
2021/04/27 02:21:12;;;;;;;9.07;5.70;;;9.80;99.90;;;9.42;63.70;100018.63;5050126;28;20413;-42
2021/04/27 02:23:40;;;;;;;7.88;4.82;;;9.90;99.90;;;9.43;63.81;100014.25;5031359;28;20567;-41
2021/04/27 02:26:06;;;;;;;8.27;5.00;;;9.90;99.90;;;9.41;63.79;100016.19;5032165;28;20033;-48
2021/04/27 02:28:34;;;;;;;8.07;4.40;;;9.90;99.90;;;9.39;63.58;100013.72;5048376;28;20357;-42
2021/04/27 02:31:01;;;;;;;8.75;5.93;;;9.90;99.90;;;9.39;64.09;100007.72;5049595;28;20031;-41
2021/04/27 02:33:27;;;;;;;8.90;5.25;;;9.90;99.90;;;9.40;64.44;100007.56;5030297;28;20033;-41
2021/04/27 02:35:53;;;;;;;8.15;5.80;;;9.90;99.90;;;9.36;64.50;100006.22;5032027;28;20123;-42
2021/04/27 02:38:21;;;;;;;6.63;4.70;;;9.90;99.90;;;9.32;64.95;99995.31;5048689;28;20039;-40
2021/04/27 02:40:53;;;;;;;11.27;4.93;;;9.90;99.90;;;9.26;65.92;99995.06;5049656;28;20115;-40
2021/04/27 02:43:20;;;;;;;8.18;5.38;;;9.80;99.90;;;9.25;65.92;99996.03;5048688;28;20469;-40
2021/04/27 02:45:47;;;;;;;7.00;5.28;;;9.90;99.90;;;9.23;66.05;99990.16;5499040;22;20426;-43
2021/04/27 02:48:17;;;;;;;6.65;4.82;;;9.80;99.90;;;9.21;66.15;99986.91;5069613;28;20021;-41
2021/04/27 02:50:50;;;;;;;9.30;5.80;;;9.80;99.90;;;9.25;66.60;99983.84;5068355;28;20041;-41
2021/04/27 02:53:17;;;;;;;7.80;5.00;;;9.80;99.90;;;9.24;66.33;99984.00;5070047;28;20358;-40
2021/04/27 02:55:43;;;;;;;6.72;4.78;;;9.80;99.90;;;9.23;65.68;99979.75;5057820;28;20041;-40
2021/04/27 02:58:10;;;;;;;10.25;5.47;;;9.80;99.90;;;9.22;65.23;99980.72;5049122;28;20543;-46
2021/04/27 03:00:36;;;;;;;6.68;5.47;;;9.80;99.90;;;9.20;65.14;99964.47;5068083;28;20484;-48
2021/04/27 03:03:02;;;;;;;8.30;4.80;;;9.80;99.90;;;9.11;65.27;99967.94;5067228;28;20153;-43
2021/04/27 03:05:29;;;;;;;7.38;4.55;;;9.70;99.90;;;8.97;66.00;99967.50;5069373;28;20040;-41
2021/04/27 03:07:55;;;;;;;10.13;4.53;;;9.60;99.90;;;8.90;66.95;99965.63;5067825;28;20453;-42
2021/04/27 03:10:21;;;;;;;7.38;5.45;;;9.50;99.90;;;8.81;67.79;99962.13;5068972;28;20126;-42
2021/04/27 03:12:47;;;;;;;8.68;5.18;;;9.50;99.90;;;8.78;67.79;99957.22;5065428;28;20116;-42
2021/04/27 03:15:14;;;;;;;8.48;5.20;;;9.40;99.90;;;8.81;67.76;99956.09;5067312;28;20460;-42
2021/04/27 03:17:41;;;;;;;10.20;5.13;;;9.40;99.90;;;8.87;67.69;99943.34;5068137;28;20121;-40
2021/04/27 03:20:11;;;;;;;8.75;4.78;;;9.40;99.90;;;8.87;67.70;99951.16;5067227;28;20055;-41
2021/04/27 03:22:37;;;;;;;7.20;4.93;;;9.50;99.90;;;8.94;67.39;99941.00;5067474;28;20085;-47
2021/04/27 03:25:05;;;;;;;7.22;5.38;;;9.50;99.90;;;8.97;67.29;99946.72;5069003;28;20496;-43
2021/04/27 03:27:31;;;;;;;7.35;4.97;;;9.50;99.90;;;9.04;67.08;99944.31;5067634;28;20403;-41
2021/04/27 03:29:59;;;;;;;9.30;5.43;;;9.60;99.90;;;9.06;67.64;99951.97;5067154;28;20066;-41
2021/04/27 03:32:25;;;;;;;10.48;4.85;;;9.60;99.90;;;9.05;67.55;99951.16;5067456;28;20218;-42
2021/04/27 03:34:51;;;;;;;7.80;5.05;;;9.60;99.90;;;9.20;65.98;99948.88;5067602;28;20070;-42
2021/04/27 03:37:18;;;;;;;8.40;5.00;;;9.70;99.90;;;9.42;64.78;99945.00;5068144;28;20215;-44
2021/04/27 03:39:44;;;;;;;8.38;5.15;;;9.80;99.90;;;9.53;64.16;99937.78;5068121;28;20086;-43
2021/04/27 03:42:11;;;;;;;9.48;5.15;;;10.00;99.90;;;9.60;63.97;99944.00;5068458;28;20025;-41
2021/04/27 03:44:37;;;;;;;9.65;4.82;;;10.10;99.90;;;9.61;63.59;99948.25;5058263;28;20044;-42
2021/04/27 03:47:04;;;;;;;6.10;4.40;;;10.10;99.90;;;9.64;63.23;99947.94;5060900;28;20400;-40
2021/04/27 03:49:31;;;;;;;8.13;4.45;;;10.10;99.90;;;9.64;63.19;99945.34;5040332;28;20357;-42
2021/04/27 03:51:57;;;;;;;10.45;4.82;;;10.20;99.90;;;9.63;63.38;99942.91;5068254;28;20032;-42
2021/04/27 03:54:24;;;;;;;8.75;5.47;;;10.20;99.90;;;9.62;63.39;99951.66;5065142;28;20044;-42
2021/04/27 03:56:50;;;;;;;5.97;4.53;;;10.20;99.90;;;9.60;63.48;99957.00;5068196;28;20081;-46
2021/04/27 03:59:16;;;;;;;7.53;4.97;;;10.10;99.90;;;9.63;63.34;99961.91;5065889;28;20028;-44
2021/04/27 04:01:42;;;;;;;14.55;5.88;;;10.20;99.90;;;9.64;64.20;99950.53;5068465;28;20480;-40
2021/04/27 04:04:08;;;;;;;11.90;5.32;;;10.20;99.90;;;9.64;63.96;99953.16;5066954;28;20369;-41
2021/04/27 04:06:35;;;;;;;9.20;4.97;;;10.20;99.90;;;9.74;63.46;99960.88;5067953;28;20133;-40
2021/04/27 04:09:05;;;;;;;8.30;5.07;;;10.20;99.90;;;9.80;63.07;99955.06;5061689;28;20029;-40
2021/04/27 04:11:33;;;;;;;8.77;5.10;;;10.30;99.90;;;9.87;62.62;99955.28;5062322;28;20036;-41
2021/04/27 04:13:59;;;;;;;7.43;4.95;;;10.30;99.90;;;9.92;62.39;99953.03;5066517;28;20028;-40
2021/04/27 04:16:25;;;;;;;8.48;5.80;;;10.40;99.90;;;9.94;62.35;99951.88;5067886;28;20093;-41
2021/04/27 04:18:51;;;;;;;8.40;5.05;;;10.40;99.90;;;9.98;62.47;99952.41;5064269;28;20037;-46
2021/04/27 04:21:17;;;;;;;8.45;4.70;;;10.50;99.90;;;10.01;62.43;99953.88;5064413;28;20433;-42
2021/04/27 04:23:44;;;;;;;6.45;4.40;;;10.50;99.90;;;10.01;62.65;99957.28;5066949;28;20031;-41
2021/04/27 04:26:10;;;;;;;8.32;5.40;;;10.50;99.90;;;9.96;63.28;99949.94;5065474;28;20365;-42
2021/04/27 04:28:36;;;;;;;8.77;5.35;;;10.50;99.90;;;9.84;64.29;99950.38;5066358;28;20066;-45
2021/04/27 04:31:02;;;;;;;9.60;5.03;;;10.50;99.90;;;9.77;65.05;99949.34;5064893;28;20051;-43
2021/04/27 04:33:28;;;;;;;9.20;5.15;;;10.40;99.90;;;9.64;66.10;99949.72;5067575;28;20035;-41
2021/04/27 04:35:54;;;;;;;9.32;6.18;;;10.20;99.90;;;9.44;68.09;99950.88;5063820;28;20383;-42
2021/04/27 04:38:20;;;;;;;8.50;6.45;;;10.10;99.90;;;9.39;69.78;99950.50;5067876;28;20038;-41
2021/04/27 04:40:48;;;;;;;12.27;8.10;;;10.00;99.90;;;9.31;71.38;99953.84;5063680;28;20037;-43
2021/04/27 04:43:15;;;;;;;11.60;8.65;;;9.90;99.90;;;9.27;72.56;99957.72;5059684;28;20033;-40
2021/04/27 04:45:41;;;;;;;13.05;7.78;;;9.90;99.90;;;9.14;73.66;99946.84;5064274;28;20245;-43
2021/04/27 04:48:07;;;;;;;8.00;6.28;;;9.80;99.90;;;9.14;73.69;99945.06;5066124;28;20020;-41
2021/04/27 04:50:33;;;;;;;11.38;6.43;;;9.70;99.90;;;9.13;74.70;99940.84;5044769;28;20053;-43
2021/04/27 04:52:59;;;;;;;10.82;6.55;;;9.80;99.90;;;9.07;74.78;99940.59;5064129;28;20330;-46
2021/04/27 04:55:25;;;;;;;10.35;6.45;;;9.70;99.90;;;9.05;74.52;99938.16;5067157;28;20290;-42
2021/04/27 04:57:51;;;;;;;10.70;6.15;;;9.70;99.90;;;9.15;73.57;99945.88;5065938;28;20084;-41
2021/04/27 05:00:20;;;;;;;8.80;6.57;;;9.70;99.90;;;9.21;73.20;99959.13;5064519;28;20458;-41
2021/04/27 05:02:46;;;;;;;11.63;7.70;;;9.70;99.90;;;9.19;74.75;99960.22;5067004;28;20032;-41
2021/04/27 05:05:13;;;;;;;9.55;7.65;;;9.70;99.90;;;9.10;76.07;99961.94;5065819;28;20578;-42
2021/04/27 05:07:45;;;;;;;9.18;7.95;;;9.70;99.90;;;9.13;76.64;99966.84;5067242;28;20035;-41
2021/04/27 05:10:13;;;;;;;8.68;7.18;;;9.70;99.90;;;9.14;76.89;99963.28;5065590;28;20183;-45
2021/04/27 05:12:40;;;;;;;11.80;7.82;;;9.70;99.90;;;9.09;77.00;99956.88;5066901;28;20105;-42
2021/04/27 05:15:07;;;;;;;8.80;7.18;;;9.70;99.90;;;9.05;77.61;99958.13;5066813;28;20029;-43
2021/04/27 05:17:34;;;;;;;7.65;5.25;;;9.70;99.90;;;9.34;75.19;99955.34;5067272;28;20111;-42
2021/04/27 05:20:01;;;;;;;9.45;6.60;;;9.80;99.90;;;9.45;74.39;99955.13;5067216;28;20096;-41
2021/04/27 05:22:27;;;;;;;8.00;5.03;;;9.90;99.90;;;9.51;74.14;99957.09;5066973;28;20060;-42
2021/04/27 05:24:56;;;;;;;8.40;5.90;;;10.00;99.90;;;9.56;73.84;99960.06;5056179;28;20025;-44
2021/04/27 05:27:23;;;;;;;7.88;5.40;;;10.10;99.90;;;9.59;74.00;99957.97;5046836;28;20040;-43
2021/04/27 05:29:50;;;;;;;6.55;5.32;;;10.10;99.90;;;9.64;73.59;99955.75;5048970;28;20472;-42
2021/04/27 05:32:16;;;;;;;9.68;6.35;;;10.20;99.90;;;9.70;73.34;99958.72;5067015;28;20032;-43
2021/04/27 05:34:42;;;;;;;10.48;5.25;;;10.20;99.90;;;9.78;73.25;99956.19;5067130;28;20097;-42
2021/04/27 05:37:08;;;;;;;10.15;7.18;;;10.20;99.90;;;9.83;74.11;99957.38;5066871;28;20386;-41
2021/04/27 05:39:34;;;;;;;8.30;7.03;;;10.30;99.90;;;9.81;75.03;99961.09;5066874;28;20350;-42
2021/04/27 05:42:00;;;;;;;10.43;6.82;;;10.40;99.90;;;9.83;75.55;99954.75;5066760;28;20338;-43
2021/04/27 05:44:27;;;;;;;12.05;6.63;;;10.40;99.90;;;9.84;75.50;99951.19;5070486;28;20035;-43
2021/04/27 05:46:53;;;;;;;11.27;7.72;;;10.40;99.90;;;9.77;76.32;99960.56;5070462;28;20060;-42
2021/04/27 05:49:19;;;;;;;8.48;7.13;;;10.40;99.90;;;9.77;76.05;99960.56;5070732;28;20550;-44
2021/04/27 05:51:45;;;;;;;12.27;7.78;;;10.30;99.90;;;9.72;76.12;99962.81;5052726;28;20099;-42
2021/04/27 05:54:11;;;;;;;7.97;5.78;;;10.30;99.90;;;9.70;75.83;99964.75;5071132;28;20106;-43
2021/04/27 05:56:37;;;;;;;9.85;6.20;;;10.30;99.90;;;9.79;75.13;99968.22;5070851;28;20155;-43
2021/04/27 05:59:04;;;;;;;9.07;6.35;;;10.30;99.90;;;9.76;75.37;99969.34;5070822;28;20037;-45
2021/04/27 06:01:31;;;;;;;9.50;6.85;;;10.30;99.90;;;9.78;76.23;99971.78;5070521;28;20134;-44
2021/04/27 06:03:57;;;;;;;8.70;6.95;;;10.30;99.90;;;9.79;76.60;99976.03;5070630;28;20387;-45
2021/04/27 06:06:23;;;;;;;8.30;6.32;;;10.40;99.90;;;9.85;76.72;99978.84;5070834;28;20037;-42
2021/04/27 06:08:49;;;;;;;9.73;5.88;;;10.40;99.90;;;9.89;76.63;99974.97;5070880;28;20112;-46
2021/04/27 06:11:15;;;;;;;6.50;5.20;;;10.50;99.90;;;9.99;76.07;99974.84;5070501;28;20035;-45
2021/04/27 06:13:41;;;;;;;9.27;6.15;;;10.50;99.90;;;10.06;75.89;99981.09;5070532;28;20032;-41
2021/04/27 06:16:08;;;;;;;6.85;5.43;;;10.60;99.90;;;10.08;75.05;99979.16;5070718;28;20036;-42
2021/04/27 06:18:34;;;;;;;7.28;5.55;;;10.60;99.90;;;10.12;75.00;99985.69;5070266;28;20028;-43
2021/04/27 06:21:01;;;;;;;9.70;6.10;;;10.70;99.90;;;10.12;74.77;99980.47;5070314;28;20566;-41
2021/04/27 06:23:28;;;;;;;8.13;6.85;;;10.70;99.90;;;10.07;76.30;99981.91;5070057;28;20040;-41
2021/04/27 06:25:54;;;;;;;10.35;6.68;;;10.70;99.90;;;9.96;77.02;99982.97;5070052;28;20044;-42
2021/04/27 06:28:20;;;;;;;15.82;7.32;;;10.60;99.90;;;9.93;77.11;99986.69;5069980;28;20028;-43
2021/04/27 06:30:47;;;;;;;7.90;6.45;;;10.50;99.90;;;9.96;76.91;99985.56;5069918;28;20072;-46
2021/04/27 06:33:13;;;;;;;7.53;6.65;;;10.50;99.90;;;10.01;77.26;99990.31;5070245;28;20041;-41
2021/04/27 06:35:40;;;;;;;8.25;5.32;;;10.60;99.90;;;10.02;77.01;99987.56;5070265;28;20123;-41
2021/04/27 06:38:07;;;;;;;11.93;6.13;;;10.60;99.90;;;9.93;77.26;99985.88;5069655;28;20032;-41
2021/04/27 06:40:33;;;;;;;8.93;6.60;;;10.60;99.90;;;9.88;77.21;99988.13;5070193;28;20047;-45
2021/04/27 06:43:00;;;;;;;10.50;6.68;;;10.50;99.90;;;9.87;77.92;99986.50;5069604;28;20053;-42
2021/04/27 06:45:27;;;;;;;15.25;7.32;;;10.50;99.90;;;9.85;78.27;99983.22;5069672;28;20044;-43
2021/04/27 06:47:53;;;;;;;8.35;6.55;;;10.50;99.90;;;9.90;78.05;99991.41;5069765;28;20460;-40
2021/04/27 06:50:20;;;;;;;10.75;7.03;;;10.50;99.90;;;9.93;77.74;99985.88;5069015;28;20381;-45
2021/04/27 06:52:46;;;;;;;9.20;6.93;;;10.50;99.90;;;9.98;77.71;99991.44;5069766;28;20024;-44
2021/04/27 06:55:13;;;;;;;7.63;6.32;;;10.50;99.90;;;10.02;77.19;99989.34;5069009;28;20032;-41
2021/04/27 06:57:39;;;;;;;7.32;6.15;;;10.60;99.90;;;10.12;76.42;99995.28;5069700;28;20173;-42
2021/04/27 07:00:08;;;;;;;7.47;5.90;;;10.60;99.90;;;10.15;76.56;99980.16;5069665;28;20086;-41
2021/04/27 07:02:34;;;;;;;8.85;6.68;;;10.70;99.90;;;10.15;76.53;99982.78;5069595;28;20068;-41
2021/04/27 07:05:00;;;;;;;8.75;6.45;;;10.80;99.90;;;10.19;76.23;99983.28;5069186;28;20476;-41
2021/04/27 07:07:26;;;;;;;9.20;6.82;;;10.70;99.90;;;10.32;76.20;99977.69;5069631;28;20041;-42
2021/04/27 07:09:52;;;;;;;8.70;6.60;;;10.80;99.90;;;10.50;76.01;99978.44;5068885;28;20035;-43
2021/04/27 07:12:18;;;;;;;8.55;6.90;;;11.00;99.90;;;10.55;76.25;99981.38;5068545;28;20041;-46
2021/04/27 07:14:44;;;;;;;8.45;6.03;;;11.10;99.90;;;10.59;75.56;99972.28;5069207;28;20394;-45
2021/04/27 07:17:10;;;;;;;8.95;6.18;;;11.10;99.90;;;10.60;75.59;99974.72;5084384;28;20066;-44
2021/04/27 07:19:36;;;;;;;7.80;6.03;;;11.20;99.90;;;10.63;75.28;99978.81;5089712;28;20044;-44
2021/04/27 07:22:03;;;;;;;8.73;4.82;;;11.20;99.90;;;10.67;74.36;99974.94;5089699;28;20028;-44
2021/04/27 07:24:30;;;;;;;9.23;5.20;;;11.30;99.90;;;10.72;74.27;99975.28;5089327;28;20513;-45
2021/04/27 07:26:56;;;;;;;8.80;5.95;;;11.30;99.90;;;10.79;74.17;99976.28;5089235;28;20039;-46
2021/04/27 07:29:22;;;;;;;6.20;5.00;;;11.30;99.90;;;10.88;74.13;99977.91;5089350;28;20036;-43
2021/04/27 07:31:48;;;;;;;9.20;6.80;;;11.40;99.90;;;10.97;74.36;99984.78;5089499;28;20039;-44
2021/04/27 07:34:15;;;;;;;9.00;6.22;;;11.50;99.90;;;11.03;74.66;99985.94;5089150;28;20056;-42
2021/04/27 07:36:41;;;;;;;9.02;5.47;;;11.60;99.90;;;11.07;74.44;99986.44;5088510;28;20043;-47
2021/04/27 07:39:09;;;;;;;6.18;5.38;;;11.60;99.90;;;11.11;74.69;99996.41;5088749;28;20032;-44
2021/04/27 07:41:36;;;;;;;11.25;6.18;;;11.60;99.90;;;11.17;74.58;99981.91;5089317;28;20020;-43
2021/04/27 07:44:02;;;;;;;10.10;5.63;;;11.70;99.90;;;11.24;74.35;99988.13;5088803;28;20032;-43
2021/04/27 07:46:28;;;;;;;12.43;7.45;;;11.80;99.90;;;11.31;74.08;99991.72;5088752;28;20142;-46
2021/04/27 07:48:54;;;;;;;8.70;6.28;;;11.90;99.90;;;11.39;73.83;99996.13;5088839;28;20024;-44
2021/04/27 07:51:20;;;;;;;10.30;5.70;;;12.00;99.90;;;11.42;73.47;99993.19;5088882;28;20205;-44
2021/04/27 07:53:46;;;;;;;7.32;4.90;;;12.00;99.90;;;11.52;72.97;99996.47;5088921;28;20043;-43
2021/04/27 07:56:12;;;;;;;7.70;4.10;;;12.00;99.90;;;11.58;72.67;99996.63;5088755;28;20063;-43
2021/04/27 07:58:38;;;;;;;7.78;4.45;;;12.10;99.90;;;11.59;72.70;99993.06;5088792;28;20392;-44
2021/04/27 08:01:04;;;;;;;10.82;4.55;;;12.10;99.90;;;11.73;72.45;100002.03;5088664;28;20079;-44
2021/04/27 08:03:30;;;;;;;10.57;4.60;;;12.20;99.90;;;11.81;71.84;99996.84;5088430;28;20036;-50
2021/04/27 08:05:56;;;;;;;6.72;4.30;;;12.40;99.90;;;11.89;71.88;99996.00;5087147;28;20438;-43
2021/04/27 08:08:23;;;;;;;11.05;3.85;;;12.40;99.90;;;12.01;71.55;100001.72;5088086;28;20388;-46
2021/04/27 08:10:49;;;;;;;6.57;3.72;;;12.50;99.90;;;12.07;71.00;100007.09;5088287;28;20032;-46
2021/04/27 08:13:15;;;;;;;8.48;3.92;;;12.60;99.90;;;12.12;70.77;100009.22;5088120;28;20036;-46
2021/04/27 08:15:42;;;;;;;4.93;3.30;;;12.70;99.90;;;12.12;70.48;100006.59;5088387;28;20023;-44
2021/04/27 08:18:08;;;;;;;3.75;2.67;;;12.70;99.90;;;12.14;69.64;100002.03;5087990;28;20479;-47
2021/04/27 08:20:36;;;;;;;3.72;2.90;;;12.70;99.90;;;12.24;68.85;100002.66;5087801;28;20043;-47
2021/04/27 08:23:05;;;;;;;2.35;1.95;;;12.80;99.90;;;12.29;68.07;100005.56;5067393;28;20028;-45
2021/04/27 08:25:32;;;;;;;3.45;2.20;;;12.80;99.90;;;12.25;67.35;100004.31;5067778;28;20052;-47
2021/04/27 08:27:58;;;;;;;1.40;0.80;;;12.90;99.90;;;12.23;66.10;100003.66;5067816;28;20044;-44
2021/04/27 08:30:26;;;;;;;2.40;1.30;;;12.90;99.90;;;12.23;65.24;100012.31;5067493;28;20071;-45
2021/04/27 08:32:52;;;;;;;2.70;1.63;;;12.80;99.90;;;12.22;64.89;100008.06;5067698;28;20127;-44
2021/04/27 08:35:19;;;;;;;6.30;1.60;;;12.80;99.90;;;12.28;64.82;100015.22;5067458;28;20029;-44
2021/04/27 08:37:46;;;;;;;4.40;1.52;;;12.90;99.90;;;12.30;65.04;100008.00;5067500;28;20060;-44
2021/04/27 08:40:15;;;;;;;6.47;1.55;;;12.90;99.90;;;12.30;64.94;100012.44;5067715;28;20055;-45
2021/04/27 08:42:42;;;;;;;2.58;1.88;;;12.90;99.90;;;12.18;64.77;100006.75;5067199;28;20057;-47
2021/04/27 08:45:10;;;;;;;4.43;1.88;;;12.80;99.90;;;12.11;64.96;100010.19;5067060;28;20032;-48
2021/04/27 08:47:37;;;;;;;2.42;1.45;;;12.80;99.90;;;12.12;64.63;100011.81;5065335;28;20345;-50
2021/04/27 08:50:10;;;;;;;6.13;1.48;;;12.70;99.90;;;12.12;63.37;100014.44;5065230;28;20395;-44
2021/04/27 08:52:38;;;;;;;1.35;0.50;;;12.70;99.90;;;12.12;62.90;100010.03;5066455;28;20674;-44
2021/04/27 08:55:07;;;;;;;0.82;0.50;;;12.70;99.90;;;12.14;62.54;100009.88;5066451;28;20178;-44
2021/04/27 08:57:37;;;;;;;1.50;0.57;;;12.70;99.90;;;12.26;61.89;100017.19;5067427;28;20340;-48
2021/04/27 09:00:11;;;;;;;3.20;0.45;;;12.80;99.90;;;12.22;60.92;100021.13;5067375;28;20138;-48
2021/04/27 09:02:37;;;;;;;1.10;0.50;;;12.70;99.90;;;12.17;61.81;100014.75;5067186;28;20488;-44
2021/04/27 09:05:18;;;;;;;1.85;0.50;;;12.70;99.90;;;12.19;61.35;100012.78;5067429;28;20396;-48
2021/04/27 09:07:44;;;;;;;1.42;0.50;;;12.70;99.90;;;12.24;61.03;100013.94;5067313;28;20240;-48
2021/04/27 09:10:28;;;;;;;0.90;0.50;;;12.80;99.60;;;12.29;59.74;100016.00;5067132;28;20536;-44
2021/04/27 09:12:56;;;;;;;1.20;0.50;;;12.80;99.00;;;12.25;60.46;100015.56;5067551;28;20066;-44
2021/04/27 09:15:53;;;;;;;1.38;0.50;;;12.80;98.60;;;12.22;59.51;100018.50;5067537;28;20047;-45
2021/04/27 09:18:36;;;;;;;;;;;12.80;98.50;;;12.03;59.79;100011.00;5067362;28;20036;-47
2021/04/27 09:21:10;;;;;;;1.50;0.30;;;12.70;97.80;;;12.00;60.28;100013.94;5066766;28;20021;-45
2021/04/27 09:23:43;;;;;;;0.70;0.40;;;12.60;98.00;;;12.02;60.19;100013.78;5067184;28;20382;-46
2021/04/27 09:26:20;;;;;;;0.60;0.30;;;12.50;98.00;;;12.08;59.59;100015.75;5066840;28;20024;-49
2021/04/27 09:28:52;;;;;;;1.38;0.30;;;12.50;98.10;;;11.96;60.18;100023.09;5061069;28;20548;-45
2021/04/27 09:31:37;;;;;;;0.60;0.30;;;12.50;97.90;;;11.83;59.81;100020.16;5065261;28;20480;-48
2021/04/27 09:34:27;;;;;;;0.67;0.30;;;12.40;97.80;;;11.84;59.79;100019.97;5063451;28;20044;-46
2021/04/27 09:37:06;;;;;;;1.15;0.30;;;12.30;97.70;;;11.86;59.60;100019.81;5046074;28;20079;-44
2021/04/27 09:39:37;;;;;;;3.17;0.60;;;12.40;97.60;;;11.71;60.20;100016.22;5056567;28;20032;-43
2021/04/27 09:42:09;;;;;;;3.65;0.22;;;12.30;97.60;;;11.64;60.61;100016.88;5066544;28;20032;-47
2021/04/27 09:44:46;;;;;;;0.70;0.30;;;12.20;98.20;;;11.72;60.51;100016.06;5062567;28;20129;-48
2021/04/27 09:47:19;;;;;;;1.58;0.30;;;12.20;98.30;;;11.64;60.23;100011.66;5064425;28;20609;-43
2021/04/27 09:50:03;;;;;;;1.98;0.45;;;12.20;98.00;;;11.59;60.20;100019.16;5062034;28;20368;-48
2021/04/27 09:52:40;;;;;;;1.48;0.40;;;12.20;98.00;;;11.54;60.43;100013.59;5061479;28;20037;-45
2021/04/27 09:55:15;;;;;;;1.05;0.35;;;12.10;98.00;;;11.47;60.76;100006.56;5059484;28;20037;-44
2021/04/27 09:58:03;;;;;;;0.75;0.22;;;12.10;98.30;;;11.49;60.34;100005.44;5058550;28;20044;-43
2021/04/27 10:00:32;;;;;;;0.70;0.30;;;12.10;98.20;;;11.57;60.95;100004.63;5062564;28;20048;-46
2021/04/27 10:03:08;;;;;;;0.98;0.40;;;12.10;98.70;;;11.58;60.58;100003.66;5065676;28;20028;-43
2021/04/27 10:05:37;;;;;;;0.50;0.20;;;12.10;98.40;;;11.61;60.55;100003.31;5061977;28;20064;-44
2021/04/27 10:08:04;;;;;;;1.17;0.40;;;12.10;98.40;;;11.60;60.30;100005.13;5046812;28;20119;-44
2021/04/27 10:10:35;;;;;;;1.13;0.30;;;12.10;98.00;;;11.52;60.72;99999.06;5055148;28;20033;-43
2021/04/27 10:13:05;;;;;;;0.60;0.30;;;12.10;98.00;;;11.46;60.36;100005.75;5046668;28;20057;-44
2021/04/27 10:15:31;;;;;;;0.47;0.20;;;12.00;98.00;;;11.57;60.28;99995.00;5056719;28;20411;-45
2021/04/27 10:18:00;;;;;;;0.30;0.20;;;12.10;97.90;;;11.56;60.17;99993.38;5064892;28;20036;-46
2021/04/27 10:20:27;;;;;;;0.77;0.30;;;12.10;97.80;;;11.64;60.37;99990.78;5065429;28;20489;-45
2021/04/27 10:22:54;;;;;;;1.67;0.30;;;12.10;98.00;;;11.59;60.93;99992.22;5066135;28;20127;-43
2021/04/27 10:25:27;;;;;;;0.60;0.30;;;12.20;98.00;;;11.57;60.21;99999.41;5047678;28;20079;-43
2021/04/27 10:28:19;;;;;;;0.40;0.20;;;12.10;97.70;;;11.61;59.87;99993.72;5061978;28;20041;-44